Aeroporto :
LOGIN :

Iscrizione | Disclaimer

   EN    FR    IT 

 










Sommario :    VFR   VFR Marginale   IFR   IFR Intensivo   IFR Molto Intensivo
Visibilità : 
Base nubi : 
>= 8 km
>= 3000ft
5 / 8 km
1000 / 3000 ft
1500m / 5 km
500 / 1000 ft
800 / 1500m
200 / 500 ft
< 800m
< 200 ft
Simboli :   Temporali  Nebbia  Neve Forte  Precipitazioni Forti  Vento > 20 kt
SIGMETs :   Varie  Temporali  Ghiacco  Turbolenza  Onda orograficha  Ceneri Vulcaniche






- Altitudine del aeroporto : 236 ft
- Codice IATA : MMX


ESMS - Malmö Sturup

ULTIMO METAR :
  • 250550Z 25015KT 9999 FEW023 SCT030 OVC053 05/02 Q0989

METARs OBSOLETI :
  • 250520Z 25016KT 9999 FEW012 SCT022 BKN033 05/03 Q0989
  • 250450Z 23015G25KT 9999 SCT009 BKN015 06/04 Q0988
  • 250420Z 23011KT 9999 FEW003 SCT006 BKN045 05/05 Q0988
  • 250350Z 16007KT 9999 OVC003 04/04 Q0989
  • 250320Z 14010KT 7000 -RA OVC003 03/03 Q0989 RERA
  • 250250Z 14015KT 3500 RA BKN004 OVC007 03/02 Q0990

TAF TAF ESMS
Valido dal 25 a 06 ore il 26 a 06 ore UTC


250510Z 2506/2606 24012KT 9999 BKN020
TEMPO 2506/2513 23018G30KT BKN012 SCT020TCU
TEMPO 2513/2517 22020G35KT 4000 SHRAGS BKN010 SCT020CB
TEMPO 2517/2522 23025G40KT 3000 SHRASNGS BKN008 BKN020CB
TEMPO 2522/2606 26020G32KT 2000 SHSNRAGS BKN005 BKN020CB



MetMap, La meteo Aeronautica in un colpo d'occhio ! - Copyright ORBIFLY Dicembre 2007 - Disclaimer

ORBIFLY MET'MAP TEAM :

Programmazione e sviluppo : Alexandra Zaïnal
Concezione : Baudouin d'Aumeries
Aiuto per la programmazione : Marc-Olivier Méhu
Supporto tecnico e logistico : Manuel Goepfert
Aiuto per la traduzione : Arnaldo La Scala

Contatto : metmap@orbifly.com




FONTI E CREDITI :

   NOAA